PWSweather.com
Personal Weather Stations
Station Observations
MADWEATHER
MadeiraPT

MadeiraPT

Lat: 32.735, Lon: -17.194

Elevation: 1063

Station Type: Davis VantagePro2

www.mad-weather.com

High Low Average
Temperature 64.7°F18.2°F 55.9°F13.3°F 60.2°F15.7°F
Dew Point 57.0°F13.9°F 47.0°F8.3°F 51.8°F11.0°F
Winds 14.2 mph ENE22.9 mph ENE Calm Calm 5.3 mph 8.5 mph
Wind Gusts 23.0 mph37.0 mph -- 8.3 mph13.4 mph
Humidity 87% 60% 74%
Pressure 30.27 in1025.10 in 30.18 in1022.00 in -
Precipitation 0.00 in0.00 in - -
Hour Temp Dew Point Humidity Winds Wind Gusts Pressure Precip Precip Rate Daily Precip Total
12:00 AM 59.9°F15.5°C 51.3°F10.7°C 73% 12.2 mph ENE19.6 kmh ENE 16.0 mph25.7 kmh 30.24 in1024.0 mb - 0.00 in0.0 mm 0.00 in0.0 mm
12:10 AM 59.9°F15.5°C 50.8°F10.4°C 72% 8.5 mph ENE13.7 kmh ENE 14.0 mph22.5 kmh 30.25 in1024.4 mb - 0.00 in0.0 mm 0.00 in0.0 mm
12:20 AM 60.1°F15.6°C 51.0°F10.6°C 72% 4.5 mph ENE7.2 kmh ENE 7.0 mph11.3 kmh 30.25 in1024.4 mb - 0.00 in0.0 mm 0.00 in0.0 mm
12:30 AM 60.1°F15.6°C 51.0°F10.6°C 72% 8.2 mph E13.2 kmh E 13.0 mph20.9 kmh 30.25 in1024.4 mb - 0.00 in0.0 mm 0.00 in0.0 mm
12:40 AM 60.2°F15.7°C 51.1°F10.6°C 72% 8.1 mph E13.0 kmh E 15.0 mph24.1 kmh 30.23 in1023.7 mb - 0.00 in0.0 mm 0.00 in0.0 mm
12:50 AM 60.1°F15.6°C 51.1°F10.6°C 72% 4.3 mph NE6.9 kmh NE 7.0 mph11.3 kmh 30.23 in1023.7 mb - 0.00 in0.0 mm 0.00 in0.0 mm
01:00 AM 60.0°F15.6°C 50.9°F10.5°C 72% 8.3 mph NE13.4 kmh NE 13.0 mph20.9 kmh 30.23 in1023.7 mb - 0.00 in0.0 mm 0.00 in0.0 mm
01:10 AM 60.2°F15.7°C 50.4°F10.2°C 70% 10.4 mph NE16.7 kmh NE 16.0 mph25.7 kmh 30.23 in1023.7 mb - 0.00 in0.0 mm 0.00 in0.0 mm
01:20 AM 59.9°F15.5°C 50.5°F10.3°C 71% 5.1 mph NNE8.2 kmh NNE 10.0 mph16.1 kmh 30.23 in1023.7 mb - 0.00 in0.0 mm 0.00 in0.0 mm
01:30 AM 59.6°F15.3°C 50.2°F10.1°C 71% 6.6 mph NE10.6 kmh NE 10.0 mph16.1 kmh 30.22 in1023.4 mb - 0.00 in0.0 mm 0.00 in0.0 mm
01:40 AM 59.7°F15.4°C 50.3°F10.2°C 71% 9.1 mph NE14.6 kmh NE 12.0 mph19.3 kmh 30.22 in1023.4 mb - 0.00 in0.0 mm 0.00 in0.0 mm
01:50 AM 59.4°F15.2°C 50.0°F10.0°C 71% 7.0 mph NE11.3 kmh NE 10.0 mph16.1 kmh 30.22 in1023.4 mb - 0.00 in0.0 mm 0.00 in0.0 mm
02:00 AM 59.3°F15.2°C 49.1°F9.5°C 69% 7.3 mph NE11.7 kmh NE 12.0 mph19.3 kmh 30.21 in1023.0 mb - 0.00 in0.0 mm 0.00 in0.0 mm
02:10 AM 59.6°F15.3°C 48.6°F9.2°C 67% 2.7 mph NE4.3 kmh NE 4.0 mph6.4 kmh 30.21 in1023.0 mb - 0.00 in0.0 mm 0.00 in0.0 mm
02:20 AM 59.5°F15.3°C 48.5°F9.2°C 67% 6.1 mph ENE9.8 kmh ENE 12.0 mph19.3 kmh 30.21 in1023.0 mb - 0.00 in0.0 mm 0.00 in0.0 mm
02:30 AM 59.6°F15.3°C 47.8°F8.8°C 65% 5.8 mph ENE9.3 kmh ENE 8.0 mph12.9 kmh 30.21 in1023.0 mb - 0.00 in0.0 mm 0.00 in0.0 mm
02:40 AM 59.5°F15.3°C 48.5°F9.2°C 67% 9.0 mph NE14.5 kmh NE 16.0 mph25.7 kmh 30.21 in1023.0 mb - 0.00 in0.0 mm 0.00 in0.0 mm
02:50 AM 59.5°F15.3°C 48.5°F9.2°C 67% 9.2 mph NE14.8 kmh NE 11.0 mph17.7 kmh 30.21 in1023.0 mb - 0.00 in0.0 mm 0.00 in0.0 mm
03:00 AM 59.3°F15.2°C 49.1°F9.5°C 69% 7.0 mph ENE11.3 kmh ENE 12.0 mph19.3 kmh 30.21 in1023.0 mb - 0.00 in0.0 mm 0.00 in0.0 mm
03:10 AM 58.9°F14.9°C 49.9°F9.9°C 72% 10.2 mph E16.4 kmh E 14.0 mph22.5 kmh 30.21 in1023.0 mb - 0.00 in0.0 mm 0.00 in0.0 mm
03:20 AM 59.2°F15.1°C 49.4°F9.7°C 70% 3.2 mph E5.1 kmh E 9.0 mph14.5 kmh 30.21 in1023.0 mb - 0.00 in0.0 mm 0.00 in0.0 mm
03:30 AM 59.1°F15.1°C 49.7°F9.8°C 71% 6.4 mph E10.3 kmh E 10.0 mph16.1 kmh 30.21 in1023.0 mb - 0.00 in0.0 mm 0.00 in0.0 mm
03:40 AM 59.3°F15.2°C 50.7°F10.4°C 73% 5.1 mph E8.2 kmh E 7.0 mph11.3 kmh 30.21 in1023.0 mb - 0.00 in0.0 mm 0.00 in0.0 mm
03:50 AM 59.3°F15.2°C 51.0°F10.6°C 74% 2.5 mph E4.0 kmh E 4.0 mph6.4 kmh 30.21 in1023.0 mb - 0.00 in0.0 mm 0.00 in0.0 mm
04:00 AM 59.4°F15.2°C 51.1°F10.6°C 74% 3.7 mph NE6.0 kmh NE 5.0 mph8.0 kmh 30.21 in1023.0 mb - 0.00 in0.0 mm 0.00 in0.0 mm
04:10 AM 59.3°F15.2°C 51.0°F10.6°C 74% 2.5 mph NE4.0 kmh NE 3.0 mph4.8 kmh 30.21 in1023.0 mb - 0.00 in0.0 mm 0.00 in0.0 mm
04:20 AM 59.4°F15.2°C 52.2°F11.2°C 77% 0.9 mph NE1.4 kmh NE 1.0 mph1.6 kmh 30.20 in1022.7 mb - 0.00 in0.0 mm 0.00 in0.0 mm
04:30 AM 59.2°F15.1°C 52.0°F11.1°C 77% 0.4 mph NE0.6 kmh NE 2.0 mph3.2 kmh 30.20 in1022.7 mb - 0.00 in0.0 mm 0.00 in0.0 mm
04:40 AM 59.1°F15.1°C 52.9°F11.6°C 80% 1.3 mph NE2.1 kmh NE 1.0 mph1.6 kmh 30.20 in1022.7 mb - 0.00 in0.0 mm 0.00 in0.0 mm
04:50 AM 59.1°F15.1°C 53.3°F11.8°C 81% 1.7 mph NE2.7 kmh NE 3.0 mph4.8 kmh 30.20 in1022.7 mb - 0.00 in0.0 mm 0.00 in0.0 mm
05:00 AM 59.0°F15.0°C 53.9°F12.2°C 83% 3.6 mph SW5.8 kmh SW 4.0 mph6.4 kmh 30.19 in1022.4 mb - 0.00 in0.0 mm 0.00 in0.0 mm
05:10 AM 58.7°F14.8°C 53.2°F11.8°C 82% 7.7 mph E12.4 kmh E 9.0 mph14.5 kmh 30.19 in1022.4 mb - 0.00 in0.0 mm 0.00 in0.0 mm
05:20 AM 58.6°F14.8°C 51.8°F11.0°C 78% 8.4 mph ENE13.5 kmh ENE 12.0 mph19.3 kmh 30.19 in1022.4 mb - 0.00 in0.0 mm 0.00 in0.0 mm
05:30 AM 58.8°F14.9°C 51.2°F10.7°C 76% 5.2 mph NE8.4 kmh NE 7.0 mph11.3 kmh 30.19 in1022.4 mb - 0.00 in0.0 mm 0.00 in0.0 mm
05:40 AM 59.3°F15.2°C 52.8°F11.6°C 79% 1.3 mph NE2.1 kmh NE 4.0 mph6.4 kmh 30.19 in1022.4 mb - 0.00 in0.0 mm 0.00 in0.0 mm
05:50 AM 59.2°F15.1°C 53.0°F11.7°C 80% 1.7 mph NE2.7 kmh NE 2.0 mph3.2 kmh 30.19 in1022.4 mb - 0.00 in0.0 mm 0.00 in0.0 mm
06:00 AM 59.2°F15.1°C 53.4°F11.9°C 81% 2.3 mph NE3.7 kmh NE 7.0 mph11.3 kmh 30.19 in1022.4 mb - 0.00 in0.0 mm 0.00 in0.0 mm
06:10 AM 59.1°F15.1°C 53.9°F12.2°C 83% Calm Calm -- 30.19 in1022.4 mb - 0.00 in0.0 mm 0.00 in0.0 mm
06:20 AM 59.0°F15.0°C 54.1°F12.3°C 84% Calm Calm -- 30.19 in1022.4 mb - 0.00 in0.0 mm 0.00 in0.0 mm
06:30 AM 58.7°F14.8°C 53.9°F12.2°C 84% 1.4 mph NE2.3 kmh NE 2.0 mph3.2 kmh 30.18 in1022.0 mb - 0.00 in0.0 mm 0.00 in0.0 mm
06:40 AM 58.5°F14.7°C 53.7°F12.1°C 84% 0.2 mph NE0.3 kmh NE 1.0 mph1.6 kmh 30.19 in1022.4 mb - 0.00 in0.0 mm 0.00 in0.0 mm
06:50 AM 58.4°F14.7°C 53.6°F12.0°C 84% 0.6 mph NE1.0 kmh NE 1.0 mph1.6 kmh 30.19 in1022.4 mb - 0.00 in0.0 mm 0.00 in0.0 mm
07:00 AM 58.4°F14.7°C 53.9°F12.2°C 85% 0.8 mph NE1.3 kmh NE 3.0 mph4.8 kmh 30.19 in1022.4 mb - 0.00 in0.0 mm 0.00 in0.0 mm
07:10 AM 58.4°F14.7°C 53.9°F12.2°C 85% 0.2 mph NE0.3 kmh NE 3.0 mph4.8 kmh 30.19 in1022.4 mb - 0.00 in0.0 mm 0.00 in0.0 mm
07:20 AM 58.4°F14.7°C 53.9°F12.2°C 85% 1.8 mph NE2.9 kmh NE 3.0 mph4.8 kmh 30.19 in1022.4 mb - 0.00 in0.0 mm 0.00 in0.0 mm
07:30 AM 58.1°F14.5°C 53.9°F12.2°C 86% 3.9 mph NE6.3 kmh NE 4.0 mph6.4 kmh 30.19 in1022.4 mb - 0.00 in0.0 mm 0.00 in0.0 mm
07:40 AM 58.3°F14.6°C 54.5°F12.5°C 87% Calm Calm -- 30.19 in1022.4 mb - 0.00 in0.0 mm 0.00 in0.0 mm
07:50 AM 58.1°F14.5°C 53.9°F12.2°C 86% 2.9 mph NE4.7 kmh NE 4.0 mph6.4 kmh 30.20 in1022.7 mb - 0.00 in0.0 mm 0.00 in0.0 mm
08:00 AM 58.1°F14.5°C 54.2°F12.3°C 87% 2.9 mph NE4.7 kmh NE 5.0 mph8.0 kmh 30.20 in1022.7 mb - 0.00 in0.0 mm 0.00 in0.0 mm
08:10 AM 57.7°F14.3°C 53.5°F11.9°C 86% 5.8 mph ENE9.3 kmh ENE 7.0 mph11.3 kmh 30.19 in1022.4 mb - 0.00 in0.0 mm 0.00 in0.0 mm
08:20 AM 57.8°F14.3°C 53.3°F11.8°C 85% Calm Calm -- 30.20 in1022.7 mb - 0.00 in0.0 mm 0.00 in0.0 mm
08:30 AM 57.8°F14.3°C 53.3°F11.8°C 85% 0.7 mph ESE1.1 kmh ESE 10.0 mph16.1 kmh 30.20 in1022.7 mb - 0.00 in0.0 mm 0.00 in0.0 mm
08:40 AM 57.8°F14.3°C 52.0°F11.1°C 81% 2.4 mph ENE3.9 kmh ENE 7.0 mph11.3 kmh 30.20 in1022.7 mb - 0.00 in0.0 mm 0.00 in0.0 mm
08:50 AM 58.7°F14.8°C 50.8°F10.4°C 75% 6.2 mph E10.0 kmh E 11.0 mph17.7 kmh 30.20 in1022.7 mb - 0.00 in0.0 mm 0.00 in0.0 mm
09:00 AM 59.3°F15.2°C 52.1°F11.2°C 77% 2.0 mph E3.2 kmh E 2.0 mph3.2 kmh 30.21 in1023.0 mb - 0.00 in0.0 mm 0.00 in0.0 mm
09:10 AM 59.5°F15.3°C 51.6°F10.9°C 75% 8.2 mph NE13.2 kmh NE 18.0 mph29.0 kmh 30.21 in1023.0 mb - 0.00 in0.0 mm 0.00 in0.0 mm
09:20 AM 60.0°F15.6°C 52.8°F11.6°C 77% 5.8 mph E9.3 kmh E 13.0 mph20.9 kmh 30.22 in1023.4 mb - 0.00 in0.0 mm 0.00 in0.0 mm
09:30 AM 60.1°F15.6°C 51.8°F11.0°C 74% 3.9 mph E6.3 kmh E 8.0 mph12.9 kmh 30.22 in1023.4 mb - 0.00 in0.0 mm 0.00 in0.0 mm
09:40 AM 60.4°F15.8°C 51.3°F10.7°C 72% 8.4 mph ENE13.5 kmh ENE 14.0 mph22.5 kmh 30.23 in1023.7 mb - 0.00 in0.0 mm 0.00 in0.0 mm
09:50 AM 60.7°F15.9°C 51.2°F10.7°C 71% 8.7 mph E14.0 kmh E 11.0 mph17.7 kmh 30.23 in1023.7 mb - 0.00 in0.0 mm 0.00 in0.0 mm
10:00 AM 61.0°F16.1°C 51.1°F10.6°C 70% 11.4 mph NE18.3 kmh NE 15.0 mph24.1 kmh 30.23 in1023.7 mb - 0.00 in0.0 mm 0.00 in0.0 mm
10:10 AM 61.0°F16.1°C 51.1°F10.6°C 70% 10.3 mph E16.6 kmh E 17.0 mph27.4 kmh 30.23 in1023.7 mb - 0.00 in0.0 mm 0.00 in0.0 mm
10:20 AM 61.0°F16.1°C 50.8°F10.4°C 69% 6.0 mph NE9.7 kmh NE 11.0 mph17.7 kmh 30.24 in1024.0 mb - 0.00 in0.0 mm 0.00 in0.0 mm
10:30 AM 61.0°F16.1°C 50.4°F10.2°C 68% 4.1 mph NE6.6 kmh NE 13.0 mph20.9 kmh 30.24 in1024.0 mb - 0.00 in0.0 mm 0.00 in0.0 mm
10:40 AM 61.3°F16.3°C 50.6°F10.3°C 68% 11.8 mph NE19.0 kmh NE 14.0 mph22.5 kmh 30.24 in1024.0 mb - 0.00 in0.0 mm 0.00 in0.0 mm
10:50 AM 62.0°F16.7°C 51.8°F11.0°C 69% 4.5 mph E7.2 kmh E 7.0 mph11.3 kmh 30.24 in1024.0 mb - 0.00 in0.0 mm 0.00 in0.0 mm
11:00 AM 63.7°F17.6°C 53.7°F12.1°C 70% 6.8 mph E10.9 kmh E 10.0 mph16.1 kmh 30.25 in1024.4 mb - 0.00 in0.0 mm 0.00 in0.0 mm
11:10 AM 63.5°F17.5°C 56.2°F13.4°C 77% 5.6 mph ESE9.0 kmh ESE 9.0 mph14.5 kmh 30.25 in1024.4 mb - 0.00 in0.0 mm 0.00 in0.0 mm
11:20 AM 62.7°F17.1°C 55.7°F13.2°C 78% 4.1 mph ESE6.6 kmh ESE 6.0 mph9.7 kmh 30.25 in1024.4 mb - 0.00 in0.0 mm 0.00 in0.0 mm
11:30 AM 63.2°F17.3°C 57.0°F13.9°C 80% 3.7 mph ESE6.0 kmh ESE 7.0 mph11.3 kmh 30.25 in1024.4 mb - 0.00 in0.0 mm 0.00 in0.0 mm
11:40 AM 63.6°F17.6°C 56.3°F13.5°C 77% 3.1 mph ESE5.0 kmh ESE 5.0 mph8.0 kmh 30.24 in1024.0 mb - 0.00 in0.0 mm 0.00 in0.0 mm
11:50 AM 63.2°F17.3°C 55.2°F12.9°C 75% 3.2 mph ESE5.1 kmh ESE 5.0 mph8.0 kmh 30.24 in1024.0 mb - 0.00 in0.0 mm 0.00 in0.0 mm
12:00 PM 63.6°F17.6°C 55.1°F12.8°C 74% 8.8 mph E14.2 kmh E 13.0 mph20.9 kmh 30.24 in1024.0 mb - 0.00 in0.0 mm 0.00 in0.0 mm
12:10 PM 63.1°F17.3°C 52.4°F11.3°C 68% 11.6 mph ESE18.7 kmh ESE 13.0 mph20.9 kmh 30.24 in1024.0 mb - 0.00 in0.0 mm 0.00 in0.0 mm
12:20 PM 64.1°F17.8°C 56.0°F13.3°C 75% 6.4 mph SSE10.3 kmh SSE 11.0 mph17.7 kmh 30.24 in1024.0 mb - 0.00 in0.0 mm 0.00 in0.0 mm
12:30 PM 64.2°F17.9°C 55.8°F13.2°C 74% 5.2 mph SSE8.4 kmh SSE 9.0 mph14.5 kmh 30.23 in1023.7 mb - 0.00 in0.0 mm 0.00 in0.0 mm
12:40 PM 64.2°F17.9°C 56.1°F13.4°C 75% 3.8 mph SSE6.1 kmh SSE 7.0 mph11.3 kmh 30.23 in1023.7 mb - 0.00 in0.0 mm 0.00 in0.0 mm
12:50 PM 63.7°F17.6°C 56.0°F13.3°C 76% 4.9 mph SSE7.9 kmh SSE 7.0 mph11.3 kmh 30.23 in1023.7 mb - 0.00 in0.0 mm 0.00 in0.0 mm
01:00 PM 64.2°F17.9°C 56.1°F13.4°C 75% 5.2 mph SSE8.4 kmh SSE 7.0 mph11.3 kmh 30.22 in1023.4 mb - 0.00 in0.0 mm 0.00 in0.0 mm
01:10 PM 64.1°F17.8°C 56.0°F13.3°C 75% 4.5 mph SSE7.2 kmh SSE 7.0 mph11.3 kmh 30.22 in1023.4 mb - 0.00 in0.0 mm 0.00 in0.0 mm
01:20 PM 64.4°F18.0°C 55.9°F13.3°C 74% 5.2 mph SSE8.4 kmh SSE 7.0 mph11.3 kmh 30.21 in1023.0 mb - 0.00 in0.0 mm 0.00 in0.0 mm
01:30 PM 64.5°F18.1°C 56.0°F13.3°C 74% 4.1 mph SSE6.6 kmh SSE 6.0 mph9.7 kmh 30.21 in1023.0 mb - 0.00 in0.0 mm 0.00 in0.0 mm
01:40 PM 64.5°F18.1°C 56.0°F13.3°C 74% 6.1 mph S9.8 kmh S 8.0 mph12.9 kmh 30.21 in1023.0 mb - 0.00 in0.0 mm 0.00 in0.0 mm
01:50 PM 64.4°F18.0°C 56.0°F13.3°C 74% 4.4 mph S7.1 kmh S 10.0 mph16.1 kmh 30.21 in1023.0 mb - 0.00 in0.0 mm 0.00 in0.0 mm
02:00 PM 64.2°F17.9°C 55.4°F13.0°C 73% 6.0 mph SSE9.7 kmh SSE 7.0 mph11.3 kmh 30.21 in1023.0 mb - 0.00 in0.0 mm 0.00 in0.0 mm
02:10 PM 64.2°F17.9°C 55.7°F13.2°C 74% 4.8 mph SSE7.7 kmh SSE 6.0 mph9.7 kmh 30.21 in1023.0 mb - 0.00 in0.0 mm 0.00 in0.0 mm
02:20 PM 64.7°F18.2°C 56.6°F13.7°C 75% 4.0 mph S6.4 kmh S 6.0 mph9.7 kmh 30.21 in1023.0 mb - 0.00 in0.0 mm 0.00 in0.0 mm
02:30 PM 64.1°F17.8°C 56.0°F13.3°C 75% 6.4 mph S10.3 kmh S 10.0 mph16.1 kmh 30.20 in1022.7 mb - 0.00 in0.0 mm 0.00 in0.0 mm
02:40 PM 64.1°F17.8°C 56.0°F13.3°C 75% 6.0 mph S9.7 kmh S 7.0 mph11.3 kmh 30.20 in1022.7 mb - 0.00 in0.0 mm 0.00 in0.0 mm
02:50 PM 63.9°F17.7°C 55.8°F13.2°C 75% 5.2 mph S8.4 kmh S 6.0 mph9.7 kmh 30.20 in1022.7 mb - 0.00 in0.0 mm 0.00 in0.0 mm
03:00 PM 64.5°F18.1°C 56.0°F13.3°C 74% 3.7 mph S6.0 kmh S 4.0 mph6.4 kmh 30.19 in1022.4 mb - 0.00 in0.0 mm 0.00 in0.0 mm
03:10 PM 63.7°F17.6°C 55.3°F12.9°C 74% 2.9 mph S4.7 kmh S 6.0 mph9.7 kmh 30.19 in1022.4 mb - 0.00 in0.0 mm 0.00 in0.0 mm
03:20 PM 64.1°F17.8°C 56.0°F13.3°C 75% 4.4 mph S7.1 kmh S 6.0 mph9.7 kmh 30.19 in1022.4 mb - 0.00 in0.0 mm 0.00 in0.0 mm
03:30 PM 64.0°F17.8°C 55.9°F13.3°C 75% 4.8 mph S7.7 kmh S 7.0 mph11.3 kmh 30.19 in1022.4 mb - 0.00 in0.0 mm 0.00 in0.0 mm
03:40 PM 63.9°F17.7°C 56.2°F13.4°C 76% 6.8 mph S10.9 kmh S 13.0 mph20.9 kmh 30.19 in1022.4 mb - 0.00 in0.0 mm 0.00 in0.0 mm
03:50 PM 63.8°F17.7°C 56.1°F13.4°C 76% 6.1 mph SSE9.8 kmh SSE 9.0 mph14.5 kmh 30.19 in1022.4 mb - 0.00 in0.0 mm 0.00 in0.0 mm
04:00 PM 63.4°F17.4°C 55.7°F13.2°C 76% 6.1 mph SSE9.8 kmh SSE 9.0 mph14.5 kmh 30.19 in1022.4 mb - 0.00 in0.0 mm 0.00 in0.0 mm
04:10 PM 62.8°F17.1°C 55.8°F13.2°C 78% 6.1 mph SSE9.8 kmh SSE 10.0 mph16.1 kmh 30.19 in1022.4 mb - 0.00 in0.0 mm 0.00 in0.0 mm
04:20 PM 62.9°F17.2°C 56.0°F13.3°C 78% 6.7 mph SSE10.8 kmh SSE 9.0 mph14.5 kmh 30.20 in1022.7 mb - 0.00 in0.0 mm 0.00 in0.0 mm
04:30 PM 63.0°F17.2°C 54.2°F12.3°C 73% 11.7 mph E18.8 kmh E 15.0 mph24.1 kmh 30.19 in1022.4 mb - 0.00 in0.0 mm 0.00 in0.0 mm
04:40 PM 62.8°F17.1°C 52.9°F11.6°C 70% 10.6 mph SE17.1 kmh SE 15.0 mph24.1 kmh 30.20 in1022.7 mb - 0.00 in0.0 mm 0.00 in0.0 mm
04:50 PM 62.6°F17.0°C 50.7°F10.4°C 65% 5.3 mph SE8.5 kmh SE 16.0 mph25.7 kmh 30.20 in1022.7 mb - 0.00 in0.0 mm 0.00 in0.0 mm
05:00 PM 62.5°F16.9°C 49.3°F9.6°C 62% 5.6 mph E9.0 kmh E 9.0 mph14.5 kmh 30.21 in1023.0 mb - 0.00 in0.0 mm 0.00 in0.0 mm
05:10 PM 62.3°F16.8°C 48.7°F9.3°C 61% 3.6 mph E5.8 kmh E 8.0 mph12.9 kmh 30.20 in1022.7 mb - 0.00 in0.0 mm 0.00 in0.0 mm
05:20 PM 62.5°F16.9°C 48.4°F9.1°C 60% 4.4 mph ESE7.1 kmh ESE 6.0 mph9.7 kmh 30.21 in1023.0 mb - 0.00 in0.0 mm 0.00 in0.0 mm
05:30 PM 62.1°F16.7°C 48.9°F9.4°C 62% 1.8 mph ESE2.9 kmh ESE 2.0 mph3.2 kmh 30.21 in1023.0 mb - 0.00 in0.0 mm 0.00 in0.0 mm
05:40 PM 61.8°F16.6°C 49.1°F9.5°C 63% 8.9 mph E14.3 kmh E 12.0 mph19.3 kmh 30.22 in1023.4 mb - 0.00 in0.0 mm 0.00 in0.0 mm
05:50 PM 60.7°F15.9°C 48.9°F9.4°C 65% 6.9 mph E11.1 kmh E 11.0 mph17.7 kmh 30.21 in1023.0 mb - 0.00 in0.0 mm 0.00 in0.0 mm
06:00 PM 60.4°F15.8°C 48.6°F9.2°C 65% 8.5 mph ESE13.7 kmh ESE 12.0 mph19.3 kmh 30.22 in1023.4 mb - 0.00 in0.0 mm 0.00 in0.0 mm
06:10 PM 59.9°F15.5°C 48.1°F8.9°C 65% 3.9 mph ESE6.3 kmh ESE 5.0 mph8.0 kmh 30.22 in1023.4 mb - 0.00 in0.0 mm 0.00 in0.0 mm
06:20 PM 59.5°F15.3°C 48.9°F9.4°C 68% 7.4 mph ESE11.9 kmh ESE 10.0 mph16.1 kmh 30.22 in1023.4 mb - 0.00 in0.0 mm 0.00 in0.0 mm
06:30 PM 58.7°F14.8°C 48.9°F9.4°C 70% 6.6 mph E10.6 kmh E 9.0 mph14.5 kmh 30.23 in1023.7 mb - 0.00 in0.0 mm 0.00 in0.0 mm
06:40 PM 58.0°F14.4°C 48.7°F9.3°C 71% 5.0 mph E8.0 kmh E 9.0 mph14.5 kmh 30.22 in1023.4 mb - 0.00 in0.0 mm 0.00 in0.0 mm
06:50 PM 57.7°F14.3°C 48.8°F9.3°C 72% 5.1 mph E8.2 kmh E 10.0 mph16.1 kmh 30.22 in1023.4 mb - 0.00 in0.0 mm 0.00 in0.0 mm
07:00 PM 57.3°F14.1°C 48.4°F9.1°C 72% 8.5 mph E13.7 kmh E 11.0 mph17.7 kmh 30.22 in1023.4 mb - 0.00 in0.0 mm 0.00 in0.0 mm
07:10 PM 57.6°F14.2°C 47.5°F8.6°C 69% 11.6 mph NE18.7 kmh NE 23.0 mph37.0 kmh 30.23 in1023.7 mb - 0.00 in0.0 mm 0.00 in0.0 mm
07:20 PM 58.0°F14.4°C 47.1°F8.4°C 67% 13.2 mph NE21.2 kmh NE 18.0 mph29.0 kmh 30.23 in1023.7 mb - 0.00 in0.0 mm 0.00 in0.0 mm
07:30 PM 57.9°F14.4°C 47.8°F8.8°C 69% 14.2 mph ENE22.9 kmh ENE 16.0 mph25.7 kmh 30.23 in1023.7 mb - 0.00 in0.0 mm 0.00 in0.0 mm
07:40 PM 57.9°F14.4°C 48.2°F9.0°C 70% 12.4 mph E20.0 kmh E 23.0 mph37.0 kmh 30.23 in1023.7 mb - 0.00 in0.0 mm 0.00 in0.0 mm
07:50 PM 57.6°F14.2°C 48.6°F9.2°C 72% 13.7 mph E22.0 kmh E 22.0 mph35.4 kmh 30.23 in1023.7 mb - 0.00 in0.0 mm 0.00 in0.0 mm
08:00 PM 57.5°F14.2°C 48.5°F9.2°C 72% 12.4 mph E20.0 kmh E 17.0 mph27.4 kmh 30.23 in1023.7 mb - 0.00 in0.0 mm 0.00 in0.0 mm
08:10 PM 57.4°F14.1°C 48.4°F9.1°C 72% 6.8 mph ENE10.9 kmh ENE 9.0 mph14.5 kmh 30.23 in1023.7 mb - 0.00 in0.0 mm 0.00 in0.0 mm
08:20 PM 57.4°F14.1°C 48.4°F9.1°C 72% 9.6 mph SE15.4 kmh SE 12.0 mph19.3 kmh 30.23 in1023.7 mb - 0.00 in0.0 mm 0.00 in0.0 mm
08:30 PM 57.8°F14.3°C 48.1°F8.9°C 70% 7.8 mph ENE12.6 kmh ENE 12.0 mph19.3 kmh 30.23 in1023.7 mb - 0.00 in0.0 mm 0.00 in0.0 mm
08:40 PM 58.5°F14.7°C 47.6°F8.7°C 67% 9.8 mph NE15.8 kmh NE 17.0 mph27.4 kmh 30.23 in1023.7 mb - 0.00 in0.0 mm 0.00 in0.0 mm
08:50 PM 58.7°F14.8°C 47.8°F8.8°C 67% 9.4 mph E15.1 kmh E 12.0 mph19.3 kmh 30.24 in1024.0 mb - 0.00 in0.0 mm 0.00 in0.0 mm
09:00 PM 58.5°F14.7°C 47.9°F8.8°C 68% 10.8 mph ENE17.4 kmh ENE 15.0 mph24.1 kmh 30.23 in1023.7 mb - 0.00 in0.0 mm 0.00 in0.0 mm
09:10 PM 58.6°F14.8°C 47.7°F8.7°C 67% 8.5 mph NE13.7 kmh NE 16.0 mph25.7 kmh 30.23 in1023.7 mb - 0.00 in0.0 mm 0.00 in0.0 mm
09:20 PM 58.8°F14.9°C 47.9°F8.8°C 67% 6.9 mph NE11.1 kmh NE 7.0 mph11.3 kmh 30.24 in1024.0 mb - 0.00 in0.0 mm 0.00 in0.0 mm
09:30 PM 58.7°F14.8°C 47.0°F8.3°C 65% 1.8 mph NE2.9 kmh NE 2.0 mph3.2 kmh 30.24 in1024.0 mb - 0.00 in0.0 mm 0.00 in0.0 mm
09:40 PM 58.7°F14.8°C 48.9°F9.4°C 70% 1.3 mph NE2.1 kmh NE 2.0 mph3.2 kmh 30.25 in1024.4 mb - 0.00 in0.0 mm 0.00 in0.0 mm
09:50 PM 58.3°F14.6°C 49.3°F9.6°C 72% Calm Calm -- 30.25 in1024.4 mb - 0.00 in0.0 mm 0.00 in0.0 mm
10:00 PM 57.6°F14.2°C 49.4°F9.7°C 74% 2.2 mph NE3.5 kmh NE 3.0 mph4.8 kmh 30.25 in1024.4 mb - 0.00 in0.0 mm 0.00 in0.0 mm
10:10 PM 57.4°F14.1°C 49.9°F9.9°C 76% Calm Calm -- 30.26 in1024.7 mb - 0.00 in0.0 mm 0.00 in0.0 mm
10:20 PM 57.4°F14.1°C 50.6°F10.3°C 78% Calm Calm -- 30.26 in1024.7 mb - 0.00 in0.0 mm 0.00 in0.0 mm
10:30 PM 57.3°F14.1°C 50.5°F10.3°C 78% Calm Calm -- 30.26 in1024.7 mb - 0.00 in0.0 mm 0.00 in0.0 mm
10:40 PM 56.9°F13.8°C 50.4°F10.2°C 79% 2.8 mph NE4.5 kmh NE 4.0 mph6.4 kmh 30.26 in1024.7 mb - 0.00 in0.0 mm 0.00 in0.0 mm
10:50 PM 56.3°F13.5°C 50.2°F10.1°C 80% 2.2 mph NE3.5 kmh NE 3.0 mph4.8 kmh 30.27 in1025.1 mb - 0.00 in0.0 mm 0.00 in0.0 mm
11:00 PM 56.0°F13.3°C 50.3°F10.2°C 81% 2.6 mph NE4.2 kmh NE 3.0 mph4.8 kmh 30.26 in1024.7 mb - 0.00 in0.0 mm 0.00 in0.0 mm
11:10 PM 55.9°F13.3°C 50.9°F10.5°C 83% Calm Calm 2.0 mph3.2 kmh 30.27 in1025.1 mb - 0.00 in0.0 mm 0.00 in0.0 mm
11:20 PM 55.9°F13.3°C 49.1°F9.5°C 78% 0.3 mph NE0.5 kmh NE 3.0 mph4.8 kmh 30.26 in1024.7 mb - 0.00 in0.0 mm 0.00 in0.0 mm
11:30 PM 56.6°F13.7°C 49.8°F9.9°C 78% 2.1 mph NE3.4 kmh NE 3.0 mph4.8 kmh 30.27 in1025.1 mb - 0.00 in0.0 mm 0.00 in0.0 mm
11:40 PM 56.9°F13.8°C 47.9°F8.8°C 72% Calm Calm -- 30.26 in1024.7 mb - 0.00 in0.0 mm 0.00 in0.0 mm
11:50 PM 57.4°F14.1°C 47.7°F8.7°C 70% 4.0 mph ENE6.4 kmh ENE 9.0 mph14.5 kmh 30.26 in1024.7 mb - 0.00 in0.0 mm 0.00 in0.0 mm